Time;durP1;ratioP1;P1;durP2;ratioP2;P2;SDS_P1;SDS_P2;PMS_P1;PMS_P2;Temp;Humidity;BMP_temperature;BMP_pressure;BME280_temperature;BME280_humidity;BME280_pressure;Samples;Min_cycle;Max_cycle;Signal;HPM_P1;HPM_P2
2023/10/14 00:01:10;;;;;;;15.35;14.75;;;23.90;99.90;;;;;;5071379;28;20203;-68
2023/10/14 00:03:41;;;;;;;16.38;15.73;;;23.90;99.90;;;;;;5071906;28;20752;-69
2023/10/14 00:06:10;;;;;;;18.25;17.55;;;23.90;99.90;;;;;;5071268;28;20211;-69
2023/10/14 00:08:47;;;;;;;16.88;16.27;;;23.90;99.90;;;;;;5073205;28;20592;-70
2023/10/14 00:11:14;;;;;;;17.08;16.48;;;23.80;99.90;;;;;;5071838;28;20211;-70
2023/10/14 00:13:42;;;;;;;16.60;16.00;;;23.80;99.90;;;;;;5072691;28;20730;-70
2023/10/14 00:16:25;;;;;;;16.75;16.10;;;23.60;99.90;;;;;;5071042;28;20238;-69
2023/10/14 00:18:55;;;;;;;15.57;15.07;;;23.50;99.90;;;;;;5066826;28;20206;-70
2023/10/14 00:21:23;;;;;;;18.50;17.70;;;23.40;99.90;;;;;;5061156;28;20298;-71
2023/10/14 00:23:50;;;;;;;16.08;15.48;;;23.30;99.90;;;;;;5050944;28;20232;-69
2023/10/14 00:26:20;;;;;;;16.75;16.15;;;23.30;99.90;;;;;;5053119;28;20226;-69
2023/10/14 00:28:54;;;;;;;15.88;15.32;;;23.20;99.90;;;;;;5055231;28;20614;-70
2023/10/14 00:31:21;;;;;;;16.95;16.35;;;23.20;99.90;;;;;;5055364;28;20211;-69
2023/10/14 00:33:48;;;;;;;16.10;15.50;;;23.20;99.90;;;;;;5055214;28;20261;-69
2023/10/14 00:36:16;;;;;;;17.10;16.50;;;23.20;99.90;;;;;;5055137;28;20226;-70
2023/10/14 00:38:45;;;;;;;17.00;16.40;;;23.20;99.90;;;;;;5059579;28;20279;-70
2023/10/14 00:41:11;;;;;;;16.63;15.98;;;23.10;99.90;;;;;;5074489;28;20233;-69
2023/10/14 00:43:40;;;;;;;16.98;16.38;;;23.20;99.90;;;;;;5076099;28;20227;-69
2023/10/14 00:46:14;;;;;;;17.45;16.75;;;23.10;99.90;;;;;;5078485;28;20211;-69
2023/10/14 00:48:44;;;;;;;17.88;17.17;;;23.10;99.90;;;;;;5077979;28;20238;-69
2023/10/14 00:51:13;;;;;;;17.63;17.02;;;23.00;99.90;;;;;;5074722;28;20207;-69
2023/10/14 00:53:52;;;;;;;18.00;17.30;;;23.10;99.90;;;;;;5074866;28;20423;-69
2023/10/14 00:56:20;;;;;;;19.23;18.52;;;23.10;99.90;;;;;;5072242;28;20207;-69
2023/10/14 00:58:50;;;;;;;18.88;18.17;;;23.10;99.90;;;;;;5073844;28;20211;-69
2023/10/14 01:01:17;;;;;;;19.13;18.42;;;23.10;99.90;;;;;;5071095;28;20199;-69
2023/10/14 01:03:48;;;;;;;18.17;17.58;;;23.00;99.90;;;;;;5073650;28;20226;-70
2023/10/14 01:06:22;;;;;;;18.73;18.00;;;23.10;99.90;;;;;;5067434;28;20572;-69
2023/10/14 01:08:52;;;;;;;19.40;18.58;;;23.10;99.90;;;;;;5065521;28;20602;-68
2023/10/14 01:11:18;;;;;;;17.33;16.73;;;23.10;99.90;;;;;;5074442;28;20217;-69
2023/10/14 01:13:45;;;;;;;17.30;16.70;;;23.00;99.90;;;;;;5079987;28;20227;-69
2023/10/14 01:16:15;;;;;;;17.10;16.50;;;23.10;99.90;;;;;;5069736;28;20212;-69
2023/10/14 01:18:45;;;;;;;18.92;18.23;;;23.10;99.90;;;;;;5071796;28;20218;-69
2023/10/14 01:21:13;;;;;;;18.02;17.33;;;23.10;99.90;;;;;;5075398;28;20214;-70
2023/10/14 01:23:49;;;;;;;17.70;17.10;;;23.10;99.90;;;;;;5076881;28;20230;-69
2023/10/14 01:26:16;;;;;;;16.92;16.33;;;23.10;99.90;;;;;;5075682;28;20223;-69
2023/10/14 01:28:52;;;;;;;18.55;17.77;;;23.10;99.90;;;;;;5067786;28;20203;-68
2023/10/14 01:31:42;;;;;;;18.25;17.60;;;23.10;99.90;;;;;;5064225;28;20256;-69
2023/10/14 01:34:22;;;;;;;18.92;18.23;;;23.20;99.90;;;;;;5060433;28;20270;-67
2023/10/14 01:36:50;;;;;;;17.20;16.40;;;23.20;99.90;;;;;;5063339;28;20207;-68
2023/10/14 01:39:26;;;;;;;30.67;29.38;;;23.20;99.90;;;;;;5063870;28;20223;-68
2023/10/14 01:41:53;;;;;;;17.23;16.63;;;23.10;99.90;;;;;;5062430;28;20294;-68
2023/10/14 01:44:22;;;;;;;17.02;16.42;;;23.10;99.90;;;;;;5070617;28;20239;-68
2023/10/14 01:46:50;;;;;;;16.80;16.20;;;23.20;99.90;;;;;;5083539;28;20257;-70
2023/10/14 01:49:19;;;;;;;26.15;25.00;;;23.10;99.90;;;;;;5085209;28;20241;-68
2023/10/14 01:51:49;;;;;;;17.98;17.17;;;23.10;99.90;;;;;;5072851;28;20204;-69
2023/10/14 01:54:16;;;;;;;17.45;16.85;;;23.20;99.90;;;;;;5078994;28;20239;-69
2023/10/14 01:56:46;;;;;;;17.05;16.45;;;23.20;99.90;;;;;;5070662;28;20223;-68
2023/10/14 01:59:12;;;;;;;18.05;17.35;;;23.10;99.90;;;;;;5074279;28;20662;-69
2023/10/14 02:01:41;;;;;;;18.10;17.40;;;23.10;99.90;;;;;;5061040;28;20212;-69
2023/10/14 02:04:08;;;;;;;21.20;20.35;;;23.10;99.90;;;;;;5063364;28;20231;-68
2023/10/14 02:06:35;;;;;;;19.17;18.48;;;23.10;99.90;;;;;;5074501;28;20207;-68
2023/10/14 02:09:03;;;;;;;18.08;17.38;;;23.10;99.90;;;;;;5073412;28;20661;-68
2023/10/14 02:11:34;;;;;;;17.42;16.75;;;23.20;99.90;;;;;;5071281;28;20733;-67
2023/10/14 02:14:07;;;;;;;19.05;18.27;;;23.10;99.90;;;;;;5072791;28;20231;-69
2023/10/14 02:16:40;;;;;;;17.13;16.52;;;23.20;99.90;;;;;;5054257;28;20216;-70
2023/10/14 02:19:18;;;;;;;18.65;17.95;;;23.10;99.90;;;;;;5053444;28;20212;-67
2023/10/14 02:21:57;;;;;;;17.42;16.83;;;23.00;99.90;;;;;;5053563;28;20678;-69
2023/10/14 02:24:25;;;;;;;17.60;16.90;;;23.10;99.90;;;;;;5053608;28;20228;-69
2023/10/14 02:26:51;;;;;;;17.75;17.13;;;23.00;99.90;;;;;;5059499;28;20207;-68
2023/10/14 02:29:20;;;;;;;17.27;16.48;;;23.00;99.90;;;;;;5072336;28;20211;-69
2023/10/14 02:31:47;;;;;;;17.25;16.55;;;23.00;99.90;;;;;;5057411;28;20219;-70
2023/10/14 02:34:15;;;;;;;17.67;16.98;;;23.00;99.90;;;;;;5052474;28;20251;-68
2023/10/14 02:36:48;;;;;;;17.60;16.90;;;23.00;99.90;;;;;;5052233;28;20743;-67
2023/10/14 02:39:15;;;;;;;18.48;17.67;;;23.00;99.90;;;;;;5052228;28;20603;-67
2023/10/14 02:41:44;;;;;;;17.63;16.92;;;23.00;99.90;;;;;;5052299;28;20625;-69
2023/10/14 02:44:20;;;;;;;17.85;17.15;;;23.00;99.90;;;;;;5051896;28;20655;-69
2023/10/14 02:46:54;;;;;;;18.40;17.48;;;23.00;99.90;;;;;;5052218;28;20239;-69
2023/10/14 02:49:24;;;;;;;17.95;17.25;;;23.00;99.90;;;;;;5051494;28;20234;-68
2023/10/14 02:51:52;;;;;;;17.33;16.63;;;23.00;99.90;;;;;;5051718;28;20678;-69
2023/10/14 02:54:27;;;;;;;17.02;16.33;;;23.00;99.90;;;;;;5051714;28;20334;-70
2023/10/14 02:56:58;;;;;;;17.05;16.45;;;23.00;99.90;;;;;;5051713;28;20243;-68
2023/10/14 02:59:36;;;;;;;18.75;17.95;;;23.10;99.90;;;;;;5051621;28;20212;-70
2023/10/14 03:02:15;;;;;;;19.08;18.38;;;23.00;99.90;;;;;;5051427;28;20575;-69
2023/10/14 03:04:49;;;;;;;18.98;18.27;;;22.90;99.90;;;;;;5051712;28;20324;-70
2023/10/14 03:07:23;;;;;;;18.85;18.15;;;22.90;99.90;;;;;;5056267;28;20214;-69
2023/10/14 03:09:49;;;;;;;18.25;17.55;;;22.90;99.90;;;;;;5052005;28;20223;-67
2023/10/14 03:12:18;;;;;;;17.90;17.20;;;22.90;99.90;;;;;;5070762;28;20310;-68
2023/10/14 03:14:48;;;;;;;19.25;18.55;;;22.90;99.90;;;;;;5071274;28;20239;-68
2023/10/14 03:17:24;;;;;;;21.23;20.42;;;22.80;99.90;;;;;;5071793;28;20778;-67
2023/10/14 03:19:53;;;;;;;18.27;17.58;;;22.80;99.90;;;;;;5071509;28;20207;-69
2023/10/14 03:22:26;;;;;;;19.42;18.63;;;22.80;99.90;;;;;;5070898;28;20627;-68
2023/10/14 03:24:52;;;;;;;18.52;17.83;;;22.80;99.90;;;;;;5071644;28;20227;-67
2023/10/14 03:27:20;;;;;;;20.55;19.75;;;22.80;99.90;;;;;;5071956;28;20207;-69
2023/10/14 03:29:53;;;;;;;18.27;17.58;;;22.80;99.90;;;;;;5071968;28;20601;-70
2023/10/14 03:32:32;;;;;;;17.58;16.92;;;22.80;99.90;;;;;;5071709;28;20265;-68
2023/10/14 03:34:59;;;;;;;18.65;17.95;;;22.80;99.90;;;;;;5071461;28;20237;-68
2023/10/14 03:37:26;;;;;;;18.25;17.55;;;22.80;99.90;;;;;;5067741;28;20204;-70
2023/10/14 03:40:35;;;;;;;18.77;18.05;;;22.70;99.90;;;;;;5057888;28;20208;-67
2023/10/14 03:42:51;;;;;;;17.88;17.17;;;22.80;99.90;;;;;;5053639;28;20230;-67
2023/10/14 03:45:21;;;;;;;17.42;16.52;;;22.70;99.90;;;;;;5065674;28;20238;-70
2023/10/14 03:47:52;;;;;;;19.08;18.35;;;22.70;99.90;;;;;;5076095;28;20207;-67
2023/10/14 03:50:23;;;;;;;19.17;18.45;;;22.60;99.90;;;;;;5071911;28;20203;-69
2023/10/14 03:52:52;;;;;;;19.25;18.55;;;22.50;99.90;;;;;;5054442;28;20221;-70
2023/10/14 03:55:24;;;;;;;19.17;18.48;;;22.40;99.90;;;;;;5051703;28;20232;-68
2023/10/14 03:57:52;;;;;;;18.80;18.10;;;22.40;99.90;;;;;;5051761;28;20766;-69
2023/10/14 04:00:36;;;;;;;18.98;18.27;;;22.30;99.90;;;;;;5050303;28;20212;-69
2023/10/14 04:03:11;;;;;;;18.48;17.80;;;22.30;99.90;;;;;;5050979;28;20211;-68
2023/10/14 04:05:41;;;;;;;18.30;17.60;;;22.20;99.90;;;;;;5051221;28;20210;-69
2023/10/14 04:08:09;;;;;;;17.13;16.52;;;22.10;99.90;;;;;;5050760;28;20258;-68
2023/10/14 04:10:43;;;;;;;17.95;17.35;;;22.10;99.90;;;;;;5051195;28;20223;-70
2023/10/14 04:13:14;;;;;;;17.52;16.73;;;22.10;99.90;;;;;;5051111;28;20299;-69
2023/10/14 04:15:49;;;;;;;18.23;17.52;;;22.10;99.90;;;;;;5051623;28;20224;-69
2023/10/14 04:18:24;;;;;;;17.90;17.20;;;22.00;99.90;;;;;;5054252;28;20795;-69
2023/10/14 04:21:06;;;;;;;18.95;18.15;;;22.00;99.90;;;;;;5070682;28;20234;-68
2023/10/14 04:23:38;;;;;;;16.95;16.35;;;22.00;99.90;;;;;;5067938;28;20239;-68
2023/10/14 04:26:11;;;;;;;24.17;23.27;;;22.00;99.90;;;;;;5068785;28;20218;-68
2023/10/14 04:28:53;;;;;;;24.20;23.30;;;22.00;99.90;;;;;;5065400;28;20677;-69
2023/10/14 04:31:26;;;;;;;18.15;17.45;;;21.90;99.90;;;;;;5071263;28;20221;-68
2023/10/14 04:33:55;;;;;;;18.27;17.58;;;21.90;99.90;;;;;;5070079;28;20293;-68
2023/10/14 04:36:53;;;;;;;17.05;16.35;;;21.90;99.90;;;;;;5071432;28;20211;-67
2023/10/14 04:39:26;;;;;;;17.20;16.50;;;21.90;99.90;;;;;;5071041;28;20214;-68
2023/10/14 04:44:54;;;;;;;18.38;17.65;;;21.90;99.90;;;;;;5070725;28;20221;-70
2023/10/14 04:47:27;;;;;;;17.90;17.20;;;21.80;99.90;;;;;;5069994;28;20210;-69
2023/10/14 04:49:56;;;;;;;18.23;17.52;;;21.90;99.90;;;;;;5069760;28;20290;-68
2023/10/14 04:52:26;;;;;;;16.80;16.20;;;21.90;99.90;;;;;;5067967;28;20211;-70
2023/10/14 04:54:54;;;;;;;18.40;17.67;;;21.90;99.90;;;;;;5069973;28;20235;-68
2023/10/14 04:57:22;;;;;;;17.33;16.73;;;21.90;99.90;;;;;;5068438;28;20568;-69
2023/10/14 04:59:54;;;;;;;20.65;19.85;;;21.90;99.90;;;;;;5049668;28;20243;-69
2023/10/14 05:02:22;;;;;;;16.38;15.77;;;21.90;99.90;;;;;;5058030;28;20196;-68
2023/10/14 05:04:50;;;;;;;16.63;16.02;;;21.90;99.90;;;;;;5069600;28;20231;-70
2023/10/14 05:07:18;;;;;;;20.40;19.60;;;21.80;99.90;;;;;;5069757;28;20675;-69
2023/10/14 05:09:56;;;;;;;15.60;15.00;;;21.80;99.90;;;;;;5069547;28;20238;-70
2023/10/14 05:12:26;;;;;;;19.83;19.00;;;21.80;99.90;;;;;;5070629;28;20287;-70
2023/10/14 05:14:55;;;;;;;15.70;15.10;;;21.70;99.90;;;;;;5067226;28;20279;-69
2023/10/14 05:17:27;;;;;;;15.45;14.85;;;21.80;99.90;;;;;;5061498;28;20212;-68
2023/10/14 05:19:59;;;;;;;15.40;14.85;;;21.80;99.90;;;;;;5053522;28;20677;-68
2023/10/14 05:22:40;;;;;;;16.15;15.55;;;21.80;99.90;;;;;;5053669;28;20565;-68
2023/10/14 05:25:15;;;;;;;15.20;14.65;;;21.80;99.90;;;;;;5054295;28;20227;-71
2023/10/14 05:27:56;;;;;;;15.70;15.10;;;21.80;99.90;;;;;;5053440;28;20211;-69
2023/10/14 05:30:23;;;;;;;16.42;15.82;;;21.80;99.90;;;;;;5053292;28;20690;-69
2023/10/14 05:32:51;;;;;;;16.27;15.57;;;21.80;99.90;;;;;;5054574;28;20559;-69
2023/10/14 05:35:22;;;;;;;16.40;15.80;;;21.70;99.90;;;;;;5054244;28;20270;-69
2023/10/14 05:37:50;;;;;;;17.02;16.42;;;21.70;99.90;;;;;;5054317;28;20211;-68
2023/10/14 05:40:21;;;;;;;16.05;15.45;;;21.70;99.90;;;;;;5054538;28;20231;-69
2023/10/14 05:42:48;;;;;;;16.10;15.50;;;21.60;99.90;;;;;;5060302;28;20235;-70
2023/10/14 05:45:15;;;;;;;16.50;15.90;;;21.60;99.90;;;;;;5065101;28;20243;-68
2023/10/14 05:47:43;;;;;;;16.17;15.57;;;21.60;99.90;;;;;;5071353;28;20211;-68
2023/10/14 05:50:14;;;;;;;16.35;15.75;;;21.60;99.90;;;;;;5070443;28;20800;-68
2023/10/14 05:52:43;;;;;;;15.98;15.38;;;21.50;99.90;;;;;;5076034;28;20239;-68
2023/10/14 05:55:11;;;;;;;16.20;15.60;;;21.50;99.90;;;;;;5076660;28;20321;-68
2023/10/14 05:57:41;;;;;;;15.70;15.10;;;21.50;99.90;;;;;;5075162;28;20211;-67
2023/10/14 06:00:20;;;;;;;15.48;14.88;;;21.50;99.90;;;;;;5076884;28;20207;-67
2023/10/14 06:02:51;;;;;;;15.90;15.00;;;21.50;99.90;;;;;;5074757;28;20203;-68
2023/10/14 06:05:20;;;;;;;15.98;15.38;;;21.50;99.90;;;;;;5077678;28;20207;-68
2023/10/14 06:07:47;;;;;;;15.93;15.32;;;21.50;99.90;;;;;;5076580;28;20674;-69
2023/10/14 06:10:20;;;;;;;15.88;15.27;;;21.50;99.90;;;;;;5075190;28;20302;-68
2023/10/14 06:12:50;;;;;;;16.67;16.08;;;21.40;99.90;;;;;;5074841;28;20211;-68
2023/10/14 06:15:17;;;;;;;16.02;15.43;;;21.40;99.90;;;;;;5064997;28;20263;-69
2023/10/14 06:17:45;;;;;;;16.27;15.68;;;21.40;99.90;;;;;;5055598;28;20204;-68
2023/10/14 06:20:13;;;;;;;15.23;14.70;;;21.30;99.90;;;;;;5074290;28;20211;-68
2023/10/14 06:22:41;;;;;;;16.70;15.90;;;21.30;99.90;;;;;;5075391;28;20250;-68
2023/10/14 06:25:08;;;;;;;15.93;15.32;;;21.40;99.90;;;;;;5074147;28;20223;-68
2023/10/14 06:27:36;;;;;;;16.17;15.57;;;21.40;99.90;;;;;;5063089;28;20212;-68
2023/10/14 06:30:03;;;;;;;16.42;15.77;;;21.40;99.90;;;;;;5060070;28;20215;-68
2023/10/14 06:32:30;;;;;;;16.25;15.65;;;21.30;99.90;;;;;;5073229;28;20211;-68
2023/10/14 06:34:59;;;;;;;15.77;15.18;;;21.30;99.90;;;;;;5066911;28;20231;-67
2023/10/14 06:37:26;;;;;;;18.15;17.48;;;21.30;99.90;;;;;;5057035;28;20207;-68
2023/10/14 06:39:54;;;;;;;14.93;14.43;;;21.30;99.90;;;;;;5068099;28;20208;-68
2023/10/14 06:42:22;;;;;;;15.35;14.75;;;21.30;99.90;;;;;;5079565;28;20212;-67
2023/10/14 06:44:51;;;;;;;16.38;15.73;;;21.40;99.90;;;;;;5078789;28;20227;-67
2023/10/14 06:47:21;;;;;;;15.75;15.20;;;21.30;99.90;;;;;;5080986;28;20631;-67
2023/10/14 06:49:50;;;;;;;18.27;17.58;;;21.30;99.90;;;;;;5083487;28;20290;-68
2023/10/14 06:52:18;;;;;;;16.20;15.60;;;21.30;99.90;;;;;;5078578;28;20292;-67
2023/10/14 06:54:45;;;;;;;16.52;15.93;;;21.30;99.90;;;;;;5069464;28;20223;-67
2023/10/14 06:57:11;;;;;;;16.42;15.73;;;21.30;99.90;;;;;;5075895;28;20641;-67
2023/10/14 06:59:38;;;;;;;16.55;15.95;;;21.20;99.90;;;;;;5075567;28;20211;-67
2023/10/14 07:02:07;;;;;;;15.10;14.57;;;21.20;99.90;;;;;;5078158;28;20207;-67
2023/10/14 07:04:37;;;;;;;16.05;15.45;;;21.20;99.90;;;;;;5076495;28;20231;-67
2023/10/14 07:07:09;;;;;;;15.27;14.77;;;21.10;99.90;;;;;;5072855;28;20210;-67
2023/10/14 07:09:36;;;;;;;15.63;15.02;;;21.10;99.90;;;;;;5069094;28;20212;-67
2023/10/14 07:12:13;;;;;;;15.95;15.35;;;21.10;99.90;;;;;;5054363;28;20594;-67
2023/10/14 07:14:40;;;;;;;15.30;14.80;;;21.10;99.90;;;;;;5053809;28;20706;-68
2023/10/14 07:17:08;;;;;;;16.73;16.13;;;21.20;99.90;;;;;;5071239;28;20234;-68
2023/10/14 07:19:35;;;;;;;15.27;14.77;;;21.20;99.90;;;;;;5072233;28;20203;-68
2023/10/14 07:22:07;;;;;;;16.85;16.15;;;21.20;99.90;;;;;;5072859;28;20276;-67
2023/10/14 07:24:36;;;;;;;15.82;15.25;;;21.10;99.90;;;;;;5072358;28;20317;-67
2023/10/14 07:27:03;;;;;;;15.95;15.38;;;21.10;99.90;;;;;;5072265;28;20632;-67
2023/10/14 07:29:30;;;;;;;15.70;15.10;;;21.10;99.90;;;;;;5071826;28;20207;-67
2023/10/14 07:31:56;;;;;;;15.93;15.32;;;21.10;99.90;;;;;;5056198;28;20212;-68
2023/10/14 07:34:24;;;;;;;16.10;15.50;;;21.10;99.90;;;;;;5052780;28;20266;-67
2023/10/14 07:36:53;;;;;;;15.68;15.18;;;21.00;99.90;;;;;;5053219;28;20218;-68
2023/10/14 07:39:29;;;;;;;15.10;14.55;;;21.20;99.90;;;;;;5052850;28;20285;-68
2023/10/14 07:41:56;;;;;;;15.98;15.27;;;21.20;99.90;;;;;;5053382;28;20211;-69
2023/10/14 07:44:23;;;;;;;17.00;16.40;;;21.30;99.90;;;;;;5052710;28;20717;-68
2023/10/14 07:46:50;;;;;;;17.48;16.83;;;21.30;99.90;;;;;;5052063;28;20212;-67
2023/10/14 07:49:17;;;;;;;16.65;16.00;;;21.30;99.90;;;;;;5070139;28;20219;-67
2023/10/14 07:51:46;;;;;;;15.40;14.80;;;21.30;99.90;;;;;;5072897;28;20207;-68
2023/10/14 07:54:13;;;;;;;16.05;15.45;;;21.40;99.90;;;;;;5061559;28;20257;-67
2023/10/14 07:56:42;;;;;;;15.38;14.77;;;21.40;99.90;;;;;;5051702;28;20336;-67
2023/10/14 07:59:10;;;;;;;15.45;14.85;;;21.50;99.90;;;;;;5051165;28;20627;-67
2023/10/14 08:01:38;;;;;;;16.40;15.70;;;21.50;99.90;;;;;;5052343;28;20208;-67
2023/10/14 08:04:08;;;;;;;14.95;14.38;;;21.50;99.90;;;;;;5052018;28;20228;-69
2023/10/14 08:06:40;;;;;;;14.35;13.85;;;21.40;99.90;;;;;;5052712;28;20203;-67
2023/10/14 08:09:23;;;;;;;15.18;14.68;;;21.30;99.90;;;;;;5061242;28;20211;-68
2023/10/14 08:11:51;;;;;;;15.52;14.93;;;21.30;99.90;;;;;;5075776;28;20210;-69
2023/10/14 08:14:18;;;;;;;15.15;14.40;;;21.30;99.90;;;;;;5073232;28;20647;-67
2023/10/14 08:16:45;;;;;;;14.77;14.27;;;21.20;99.90;;;;;;5051225;28;20230;-67
2023/10/14 08:19:12;;;;;;;14.82;14.32;;;21.20;99.90;;;;;;5050836;28;20269;-67
2023/10/14 08:21:39;;;;;;;14.82;14.23;;;21.30;99.90;;;;;;5050937;28;20208;-67
2023/10/14 08:24:06;;;;;;;15.20;14.60;;;21.40;99.90;;;;;;5050837;28;20228;-67
2023/10/14 08:26:35;;;;;;;14.50;14.00;;;21.30;99.90;;;;;;5051273;28;20204;-66
2023/10/14 08:29:02;;;;;;;13.88;13.38;;;21.30;99.90;;;;;;5051030;28;20291;-68
2023/10/14 08:31:29;;;;;;;15.50;14.90;;;21.20;99.90;;;;;;5051170;28;20295;-67
2023/10/14 08:33:56;;;;;;;18.25;17.65;;;21.20;99.90;;;;;;5051341;28;20669;-67
2023/10/14 08:36:26;;;;;;;17.45;16.85;;;21.20;99.90;;;;;;5051744;28;20227;-68
2023/10/14 08:38:53;;;;;;;40.45;38.72;;;21.10;99.90;;;;;;5051703;28;20212;-67
2023/10/14 08:41:19;;;;;;;28.33;27.27;;;20.70;99.90;;;;;;5055945;28;20208;-68
2023/10/14 08:43:50;;;;;;;25.20;24.35;;;19.90;99.90;;;;;;5064107;28;20596;-67
2023/10/14 08:46:23;;;;;;;188.95;178.63;;;19.30;99.90;;;;;;5068340;28;20222;-67
2023/10/14 08:48:52;;;;;;;62.58;59.63;;;18.80;99.90;;;;;;5072983;28;20207;-68
2023/10/14 08:51:19;;;;;;;30.50;29.40;;;18.40;99.90;;;;;;5068492;28;20200;-67
2023/10/14 08:53:53;;;;;;;31.10;29.95;;;18.10;99.90;;;;;;5068787;28;20709;-68
2023/10/14 08:56:22;;;;;;;30.73;29.63;;;17.90;99.90;;;;;;5067650;28;20300;-68
2023/10/14 08:58:50;;;;;;;36.80;35.40;;;17.70;99.90;;;;;;5068601;28;20208;-67
2023/10/14 09:01:22;;;;;;;39.55;37.80;;;17.50;99.90;;;;;;5086495;28;20203;-68
2023/10/14 09:03:49;;;;;;;27.83;26.85;;;17.40;99.90;;;;;;5090136;28;20219;-68
2023/10/14 09:06:18;;;;;;;24.90;24.05;;;17.40;99.90;;;;;;5078813;28;20206;-68
2023/10/14 09:08:50;;;;;;;32.13;31.00;;;17.40;99.90;;;;;;5083245;28;20200;-66
2023/10/14 09:11:27;;;;;;;26.20;25.30;;;17.30;99.90;;;;;;5080771;28;20219;-66
2023/10/14 09:14:10;;;;;;;29.02;28.02;;;17.30;99.90;;;;;;5080557;28;20223;-66
2023/10/14 09:16:39;;;;;;;30.15;29.13;;;17.40;99.90;;;;;;5072716;28;20249;-66
2023/10/14 09:19:06;;;;;;;27.42;26.50;;;17.40;99.90;;;;;;5069189;28;20265;-66
2023/10/14 09:21:42;;;;;;;25.70;24.80;;;17.40;99.90;;;;;;5066058;28;20694;-66
2023/10/14 09:24:09;;;;;;;26.30;25.40;;;17.40;99.90;;;;;;5064300;28;20678;-65
2023/10/14 09:26:43;;;;;;;30.42;29.38;;;17.40;99.90;;;;;;5064603;28;20200;-66
2023/10/14 09:29:12;;;;;;;26.88;25.98;;;17.30;99.90;;;;;;5066547;28;20291;-65
2023/10/14 09:31:39;;;;;;;33.85;32.67;;;17.50;99.90;;;;;;5064258;28;20212;-65
2023/10/14 09:34:08;;;;;;;34.15;32.95;;;17.60;99.90;;;;;;5065335;28;20242;-67
2023/10/14 09:36:43;;;;;;;35.42;34.20;;;17.70;99.90;;;;;;5062908;28;20231;-65
2023/10/14 09:39:15;;;;;;;36.30;35.05;;;17.70;99.90;;;;;;5064920;28;20580;-66
2023/10/14 09:41:46;;;;;;;49.83;48.08;;;17.70;99.90;;;;;;5064048;28;20224;-67
2023/10/14 09:44:17;;;;;;;39.90;38.45;;;17.80;99.90;;;;;;5064299;28;20635;-67
2023/10/14 09:46:46;;;;;;;26.15;25.23;;;17.70;99.90;;;;;;5064355;28;20204;-65
2023/10/14 09:49:15;;;;;;;35.70;34.40;;;17.70;99.90;;;;;;5063937;28;20261;-67
2023/10/14 09:51:48;;;;;;;27.95;26.95;;;17.70;99.90;;;;;;5064137;28;20257;-68
2023/10/14 09:54:16;;;;;;;27.90;26.92;;;17.50;99.90;;;;;;5064125;28;20635;-67
2023/10/14 09:56:46;;;;;;;35.42;34.17;;;17.30;99.90;;;;;;5073065;28;20589;-68
2023/10/14 09:59:15;;;;;;;29.45;28.42;;;17.20;99.90;;;;;;5068986;28;20229;-67
2023/10/14 10:01:43;;;;;;;36.47;35.20;;;17.20;99.90;;;;;;5061447;28;20204;-68
2023/10/14 10:04:14;;;;;;;29.85;28.80;;;17.20;99.90;;;;;;5064909;28;20231;-67
2023/10/14 10:06:49;;;;;;;30.63;29.52;;;17.40;99.90;;;;;;5064913;28;20206;-68
2023/10/14 10:09:47;;;;;;;40.85;39.25;;;17.40;99.90;;;;;;5071378;28;20294;-69
2023/10/14 10:12:16;;;;;;;45.17;43.63;;;17.20;99.90;;;;;;5064609;28;20208;-68
2023/10/14 10:14:45;;;;;;;38.30;36.97;;;17.20;99.90;;;;;;5063712;28;20224;-67
2023/10/14 10:17:13;;;;;;;33.40;32.25;;;17.20;99.90;;;;;;5065160;28;20212;-68
2023/10/14 10:20:09;;;;;;;37.83;36.50;;;17.20;99.90;;;;;;5063467;28;20223;-68
2023/10/14 10:22:41;;;;;;;26.95;26.02;;;17.30;99.90;;;;;;5062902;28;20701;-68
2023/10/14 10:25:09;;;;;;;32.40;31.27;;;17.20;99.90;;;;;;5067531;28;20906;-68
2023/10/14 10:27:36;;;;;;;40.85;39.40;;;17.20;99.90;;;;;;5063758;28;20250;-67
2023/10/14 10:30:07;;;;;;;30.35;29.30;;;17.20;99.90;;;;;;5066785;28;20638;-67
2023/10/14 10:32:34;;;;;;;28.55;27.55;;;17.10;99.90;;;;;;5057762;28;20213;-68
2023/10/14 10:35:16;;;;;;;47.78;45.83;;;17.00;99.90;;;;;;5070373;28;20259;-69
2023/10/14 10:37:50;;;;;;;38.05;36.72;;;16.80;99.90;;;;;;5067346;28;20204;-67
2023/10/14 10:40:22;;;;;;;34.13;32.90;;;16.60;99.90;;;;;;5054325;28;20211;-67
2023/10/14 10:42:53;;;;;;;71.20;68.18;;;16.40;99.90;;;;;;5069583;28;20199;-67
2023/10/14 10:45:22;;;;;;;48.45;46.72;;;16.40;99.90;;;;;;5064724;28;20618;-67
2023/10/14 10:47:56;;;;;;;92.95;88.28;;;16.30;99.90;;;;;;5067757;28;20200;-67
2023/10/14 10:50:26;;;;;;;42.97;41.42;;;16.20;99.90;;;;;;5065366;28;20238;-68
2023/10/14 10:52:55;;;;;;;47.35;45.63;;;16.00;99.90;;;;;;5062793;28;20326;-67
2023/10/14 10:55:24;;;;;;;60.22;58.05;;;15.90;99.90;;;;;;5064371;28;20239;-67
2023/10/14 10:58:00;;;;;;;45.78;44.15;;;15.90;99.90;;;;;;5065784;28;20630;-66
2023/10/14 11:00:31;;;;;;;62.75;60.47;;;15.90;99.90;;;;;;5063490;28;20230;-68
2023/10/14 11:02:57;;;;;;;64.97;62.50;;;15.90;99.90;;;;;;5062451;28;20219;-67
2023/10/14 11:05:25;;;;;;;40.70;39.28;;;15.80;99.90;;;;;;5067490;28;20211;-68
2023/10/14 11:07:53;;;;;;;65.63;62.83;;;15.80;99.90;;;;;;5075630;28;20231;-67
2023/10/14 11:10:23;;;;;;;69.57;66.43;;;15.80;99.90;;;;;;5069637;28;20211;-68
2023/10/14 11:12:50;;;;;;;71.55;68.75;;;15.70;99.90;;;;;;5065566;28;20231;-67
2023/10/14 11:15:21;;;;;;;114.82;108.97;;;15.60;99.90;;;;;;5065549;28;20234;-68
2023/10/14 11:17:53;;;;;;;64.65;62.22;;;15.70;99.90;;;;;;5062986;28;20224;-67
2023/10/14 11:20:20;;;;;;;43.38;41.85;;;15.70;99.90;;;;;;5065312;28;20249;-67
2023/10/14 11:22:49;;;;;;;44.97;43.28;;;15.60;99.90;;;;;;5063893;28;20593;-67
2023/10/14 11:25:19;;;;;;;43.40;41.88;;;15.70;99.90;;;;;;5062584;28;20218;-65
2023/10/14 11:27:46;;;;;;;41.58;40.13;;;15.70;99.90;;;;;;5063396;28;20599;-65
2023/10/14 11:30:13;;;;;;;36.03;34.78;;;15.80;99.90;;;;;;5061695;28;20275;-64
2023/10/14 11:32:47;;;;;;;27.85;26.90;;;15.80;99.90;;;;;;5062021;28;20229;-64
2023/10/14 11:35:21;;;;;;;37.33;36.03;;;15.90;99.90;;;;;;5061725;28;20226;-65
2023/10/14 11:37:50;;;;;;;32.13;31.00;;;16.00;99.90;;;;;;5060693;28;20230;-66
2023/10/14 11:40:17;;;;;;;37.42;36.13;;;16.00;99.90;;;;;;5066324;28;20204;-65
2023/10/14 11:42:46;;;;;;;28.85;27.85;;;16.00;99.90;;;;;;5060937;28;20208;-65
2023/10/14 11:45:17;;;;;;;34.78;33.53;;;16.10;99.90;;;;;;5063999;28;20272;-68
2023/10/14 11:47:44;;;;;;;36.75;35.45;;;16.10;99.90;;;;;;5063352;28;20196;-67
2023/10/14 11:50:14;;;;;;;49.55;47.83;;;16.00;99.90;;;;;;5063926;28;20260;-66
2023/10/14 11:52:43;;;;;;;22.98;22.17;;;16.00;99.90;;;;;;5060295;28;20273;-66
2023/10/14 11:55:14;;;;;;;24.70;23.88;;;16.00;99.90;;;;;;5065054;28;20666;-67
2023/10/14 11:57:42;;;;;;;27.75;26.77;;;15.90;99.90;;;;;;5060451;28;20224;-66
2023/10/14 12:00:11;;;;;;;24.02;23.20;;;16.00;99.90;;;;;;5065304;28;20211;-66
2023/10/14 12:02:39;;;;;;;21.70;20.98;;;16.00;99.90;;;;;;5065283;28;20196;-66
2023/10/14 12:05:07;;;;;;;26.05;24.95;;;16.00;99.90;;;;;;5063230;28;20359;-66
2023/10/14 12:07:34;;;;;;;18.92;18.27;;;16.00;99.90;;;;;;5061929;28;20204;-65
2023/10/14 12:10:04;;;;;;;19.92;19.23;;;15.90;99.90;;;;;;5068556;28;20207;-65
2023/10/14 12:12:32;;;;;;;20.52;19.83;;;15.90;99.90;;;;;;5071625;28;20666;-66
2023/10/14 12:14:59;;;;;;;16.67;16.08;;;15.90;99.90;;;;;;5068007;28;20231;-67
2023/10/14 12:17:26;;;;;;;19.25;18.55;;;15.90;99.90;;;;;;5066101;28;20219;-66
2023/10/14 12:19:53;;;;;;;20.08;19.40;;;15.90;99.90;;;;;;5063644;28;20572;-65
2023/10/14 12:22:20;;;;;;;16.08;15.50;;;15.80;99.90;;;;;;5070243;28;20214;-65
2023/10/14 12:24:47;;;;;;;20.88;20.13;;;15.70;99.90;;;;;;5068470;28;20314;-66
2023/10/14 12:27:15;;;;;;;15.35;14.82;;;15.60;99.90;;;;;;5068965;28;20195;-64
2023/10/14 12:29:42;;;;;;;14.85;14.35;;;15.60;99.90;;;;;;5064634;28;20207;-68
2023/10/14 12:32:15;;;;;;;14.73;14.23;;;15.60;99.90;;;;;;5060454;28;20216;-66
2023/10/14 12:34:43;;;;;;;17.15;16.55;;;15.60;99.90;;;;;;5059045;28;20228;-65
2023/10/14 12:37:17;;;;;;;15.50;15.00;;;15.60;99.90;;;;;;5068526;28;20223;-66
2023/10/14 12:39:48;;;;;;;12.40;12.00;;;15.50;99.90;;;;;;5066964;28;20234;-65
2023/10/14 12:42:19;;;;;;;12.82;12.32;;;15.50;99.90;;;;;;5068720;28;20245;-67
2023/10/14 12:44:49;;;;;;;14.23;13.73;;;15.60;99.90;;;;;;5075291;28;20250;-66